Time;durP1;ratioP1;P1;durP2;ratioP2;P2;SDS_P1;SDS_P2;PMS_P1;PMS_P2;Temp;Humidity;BMP_temperature;BMP_pressure;BME280_temperature;BME280_humidity;BME280_pressure;Samples;Min_cycle;Max_cycle;Signal;HPM_P1;HPM_P2
2022/06/22 00:00:48;;;;;;;8.87;7.97;;;;;;;;;;5013094;28;20783;-68
2022/06/22 00:03:14;;;;;;;9.57;8.60;;;;;;;;;;5014953;28;20761;-68
2022/06/22 00:05:47;;;;;;;8.47;7.57;;;;;;;;;;5017331;28;20505;-68
2022/06/22 00:08:16;;;;;;;7.50;6.37;;;;;;;;;;5015826;28;20509;-68
2022/06/22 00:10:50;;;;;;;9.47;8.17;;;;;;;;;;5019450;28;20400;-67
2022/06/22 00:13:18;;;;;;;7.50;6.80;;;;;;;;;;5017956;28;20422;-67
2022/06/22 00:15:49;;;;;;;8.87;6.33;;;;;;;;;;5013980;28;20396;-68
2022/06/22 00:18:38;;;;;;;9.80;8.70;;;;;;;;;;5032657;28;20453;-67
2022/06/22 00:21:17;;;;;;;9.93;7.90;;;;;;;;;;5044899;28;20391;-68
2022/06/22 00:23:45;;;;;;;7.90;7.10;;;;;;;;;;5047812;28;20521;-67
2022/06/22 00:26:26;;;;;;;7.93;7.23;;;;;;;;;;5046267;28;20410;-67
2022/06/22 00:29:05;;;;;;;10.10;7.30;;;;;;;;;;5033638;28;20433;-68
2022/06/22 00:31:49;;;;;;;12.03;6.73;;;;;;;;;;5034952;28;20410;-67
2022/06/22 00:34:18;;;;;;;10.83;7.40;;;;;;;;;;5034002;28;20406;-67
2022/06/22 00:37:00;;;;;;;8.70;7.67;;;;;;;;;;5034325;28;20434;-67
2022/06/22 00:39:29;;;;;;;7.73;7.03;;;;;;;;;;5032563;28;20655;-68
2022/06/22 00:42:21;;;;;;;6.77;6.13;;;;;;;;;;5033154;28;20446;-69
2022/06/22 00:44:54;;;;;;;8.97;8.17;;;;;;;;;;5031211;28;20697;-68
2022/06/22 00:47:23;;;;;;;10.40;8.37;;;;;;;;;;5030779;28;20429;-67
2022/06/22 00:49:49;;;;;;;9.53;8.60;;;;;;;;;;5030525;28;20886;-67
2022/06/22 00:52:21;;;;;;;9.73;8.00;;;;;;;;;;5013793;28;20903;-66
2022/06/22 00:54:47;;;;;;;9.10;8.20;;;;;;;;;;5019102;28;20408;-68
2022/06/22 00:57:15;;;;;;;8.77;7.60;;;;;;;;;;5027223;28;20438;-67
2022/06/22 01:00:00;;;;;;;7.50;6.63;;;;;;;;;;5030350;28;20454;-68
2022/06/22 01:02:44;;;;;;;8.50;7.67;;;;;;;;;;5031471;28;20402;-68
2022/06/22 01:05:18;;;;;;;11.47;8.37;;;;;;;;;;5031182;28;20481;-68
2022/06/22 01:07:48;;;;;;;9.53;8.67;;;;;;;;;;5030790;28;20937;-68
2022/06/22 01:10:35;;;;;;;9.03;7.97;;;;;;;;;;5030833;28;20398;-68
2022/06/22 01:13:21;;;;;;;10.07;8.90;;;;;;;;;;5031382;28;20401;-67
2022/06/22 01:16:02;;;;;;;8.77;7.93;;;;;;;;;;5013332;28;20426;-67
2022/06/22 01:18:35;;;;;;;9.00;8.20;;;;;;;;;;5018244;28;20459;-68
2022/06/22 01:21:04;;;;;;;9.73;8.93;;;;;;;;;;5012089;28;21058;-68
2022/06/22 01:23:39;;;;;;;12.00;9.10;;;;;;;;;;5010702;28;20514;-68
2022/06/22 01:26:11;;;;;;;9.13;8.30;;;;;;;;;;5011848;28;20410;-68
2022/06/22 01:28:37;;;;;;;8.70;7.80;;;;;;;;;;5009938;28;20931;-68
2022/06/22 01:31:12;;;;;;;10.57;7.80;;;;;;;;;;5011416;28;20404;-69
2022/06/22 01:33:39;;;;;;;10.43;8.27;;;;;;;;;;5010389;28;20390;-69
2022/06/22 01:36:17;;;;;;;10.33;7.97;;;;;;;;;;5011126;28;20408;-69
2022/06/22 01:38:43;;;;;;;9.23;8.50;;;;;;;;;;5009687;28;20469;-68
2022/06/22 01:41:28;;;;;;;8.80;8.00;;;;;;;;;;5011403;28;20888;-68
2022/06/22 01:43:54;;;;;;;9.63;8.43;;;;;;;;;;5012151;28;20552;-69
2022/06/22 01:46:20;;;;;;;12.70;9.43;;;;;;;;;;5030937;28;20476;-69
2022/06/22 01:48:57;;;;;;;10.53;9.53;;;;;;;;;;5039800;22;20514;-69
2022/06/22 01:51:26;;;;;;;12.10;10.87;;;;;;;;;;5010831;28;20399;-70
2022/06/22 01:53:58;;;;;;;11.03;10.00;;;;;;;;;;5009908;28;20903;-70
2022/06/22 01:56:54;;;;;;;11.00;9.77;;;;;;;;;;5010860;28;20399;-70
2022/06/22 01:59:20;;;;;;;10.80;9.67;;;;;;;;;;4953607;28;20481;-71
2022/06/22 02:01:51;;;;;;;10.50;9.50;;;;;;;;;;4989487;28;20492;-70
2022/06/22 02:04:17;;;;;;;9.10;8.40;;;;;;;;;;4990322;28;20415;-70
2022/06/22 02:09:48;;;;;;;9.90;9.00;;;;;;;;;;4990144;28;20431;-70
2022/06/22 02:12:20;;;;;;;10.10;9.00;;;;;;;;;;4991089;28;20396;-70
2022/06/22 02:14:50;;;;;;;9.83;8.87;;;;;;;;;;4990539;28;20931;-70
2022/06/22 02:17:19;;;;;;;14.53;7.80;;;;;;;;;;4990180;28;20454;-70
2022/06/22 02:20:05;;;;;;;10.50;8.90;;;;;;;;;;4981927;28;20539;-69
2022/06/22 02:22:31;;;;;;;11.87;9.20;;;;;;;;;;4991107;28;20907;-69
2022/06/22 02:24:57;;;;;;;14.17;10.10;;;;;;;;;;4989955;28;20492;-68
2022/06/22 02:27:25;;;;;;;9.87;9.07;;;;;;;;;;4990054;28;20451;-70
2022/06/22 02:29:53;;;;;;;17.30;9.10;;;;;;;;;;4989363;28;20466;-69
2022/06/22 02:32:24;;;;;;;23.47;10.17;;;;;;;;;;4990106;28;20412;-70
2022/06/22 02:34:51;;;;;;;15.17;10.53;;;;;;;;;;4989291;28;20415;-69
2022/06/22 02:37:18;;;;;;;9.87;8.87;;;;;;;;;;4988567;28;20801;-69
2022/06/22 02:39:47;;;;;;;11.53;9.97;;;;;;;;;;4989374;28;20925;-70
2022/06/22 02:44:58;;;;;;;11.60;8.73;;;;;;;;;;4999661;28;20609;-69
2022/06/22 02:47:29;;;;;;;11.40;10.27;;;;;;;;;;5008497;28;20840;-69
2022/06/22 02:50:13;;;;;;;9.90;8.90;;;;;;;;;;5008609;28;20590;-68
2022/06/22 02:52:45;;;;;;;10.20;8.00;;;;;;;;;;4989417;28;20405;-66
2022/06/22 02:55:13;;;;;;;20.97;8.50;;;;;;;;;;4987819;28;20511;-68
2022/06/22 02:57:56;;;;;;;13.23;9.73;;;;;;;;;;4989496;28;20477;-68
2022/06/22 03:00:27;;;;;;;10.57;9.57;;;;;;;;;;4988704;28;20464;-68
2022/06/22 03:03:01;;;;;;;11.50;9.37;;;;;;;;;;4989729;28;20803;-66
2022/06/22 03:05:27;;;;;;;12.37;10.47;;;;;;;;;;4989853;28;20384;-67
2022/06/22 03:07:56;;;;;;;14.30;10.13;;;;;;;;;;4989924;28;20438;-68
2022/06/22 03:10:22;;;;;;;14.70;9.00;;;;;;;;;;4990986;28;20432;-68
2022/06/22 03:12:48;;;;;;;13.10;9.40;;;;;;;;;;4993125;28;20554;-68
2022/06/22 03:15:17;;;;;;;8.23;7.40;;;;;;;;;;4993193;28;20414;-68
2022/06/22 03:17:43;;;;;;;12.57;11.20;;;;;;;;;;4992118;28;20438;-68
2022/06/22 03:20:13;;;;;;;12.97;10.40;;;;;;;;;;4991884;28;21065;-68
2022/06/22 03:22:48;;;;;;;14.83;11.20;;;;;;;;;;4990741;28;20407;-68
2022/06/22 03:25:25;;;;;;;14.77;11.20;;;;;;;;;;4992507;28;20847;-68
2022/06/22 03:27:53;;;;;;;19.17;11.30;;;;;;;;;;4994318;28;20434;-67
2022/06/22 03:30:20;;;;;;;14.10;12.30;;;;;;;;;;4994043;28;20470;-67
2022/06/22 03:33:07;;;;;;;15.80;11.43;;;;;;;;;;4993911;28;20423;-67
2022/06/22 03:35:42;;;;;;;13.30;11.00;;;;;;;;;;4989742;28;20470;-67
2022/06/22 03:38:11;;;;;;;12.77;11.60;;;;;;;;;;4988204;28;20435;-67
2022/06/22 03:40:41;;;;;;;17.10;12.50;;;;;;;;;;4989750;28;20408;-67
2022/06/22 03:43:13;;;;;;;15.10;13.30;;;;;;;;;;4989667;28;20467;-67
2022/06/22 03:45:42;;;;;;;16.30;12.60;;;;;;;;;;5005246;28;20447;-67
2022/06/22 03:48:13;;;;;;;14.57;13.07;;;;;;;;;;5008225;28;20443;-67
2022/06/22 03:50:48;;;;;;;13.10;12.00;;;;;;;;;;5003544;28;21002;-67
2022/06/22 03:53:33;;;;;;;16.83;12.80;;;;;;;;;;4989520;28;20422;-67
2022/06/22 03:56:02;;;;;;;16.13;13.43;;;;;;;;;;4984025;28;20404;-67
2022/06/22 03:58:28;;;;;;;20.13;12.17;;;;;;;;;;4991904;28;20463;-67
2022/06/22 04:00:55;;;;;;;15.53;14.07;;;;;;;;;;4993060;28;20464;-67
2022/06/22 04:03:21;;;;;;;13.87;12.53;;;;;;;;;;4992373;28;20415;-67
2022/06/22 04:05:50;;;;;;;14.73;13.20;;;;;;;;;;4993468;28;20397;-67
2022/06/22 04:08:20;;;;;;;18.27;13.23;;;;;;;;;;4991995;28;20788;-67
2022/06/22 04:11:00;;;;;;;14.97;13.53;;;;;;;;;;4993609;28;20420;-66
2022/06/22 04:13:32;;;;;;;28.83;13.47;;;;;;;;;;4992986;28;20443;-68
2022/06/22 04:16:05;;;;;;;17.33;13.43;;;;;;;;;;4992718;28;20388;-68
2022/06/22 04:18:41;;;;;;;14.83;13.43;;;;;;;;;;4991185;28;20466;-68
2022/06/22 04:21:09;;;;;;;18.93;13.90;;;;;;;;;;4992728;28;20418;-68
2022/06/22 04:23:46;;;;;;;17.13;13.13;;;;;;;;;;4983664;28;21330;-68
2022/06/22 04:26:19;;;;;;;17.93;15.80;;;;;;;;;;4991012;28;20400;-69
2022/06/22 04:28:47;;;;;;;15.93;14.27;;;;;;;;;;4988860;28;21014;-68
2022/06/22 04:31:19;;;;;;;18.33;14.57;;;;;;;;;;4990630;28;20471;-67
2022/06/22 04:33:47;;;;;;;16.83;15.20;;;;;;;;;;4988675;28;20546;-67
2022/06/22 04:36:20;;;;;;;18.87;14.10;;;;;;;;;;4989518;28;20893;-68
2022/06/22 04:38:46;;;;;;;18.90;16.47;;;;;;;;;;4987960;28;20618;-67
2022/06/22 04:41:31;;;;;;;17.40;15.73;;;;;;;;;;4989599;28;21132;-68
2022/06/22 04:43:59;;;;;;;15.80;14.20;;;;;;;;;;4991708;28;21372;-68
2022/06/22 04:46:31;;;;;;;15.87;14.33;;;;;;;;;;5008936;28;20537;-68
2022/06/22 04:49:01;;;;;;;17.37;15.00;;;;;;;;;;5008287;28;20482;-70
2022/06/22 04:51:32;;;;;;;15.80;14.17;;;;;;;;;;4998770;28;20401;-70
2022/06/22 04:54:07;;;;;;;18.40;16.50;;;;;;;;;;4988762;28;20419;-70
2022/06/22 04:56:38;;;;;;;20.40;16.00;;;;;;;;;;4988050;28;20416;-69
2022/06/22 04:59:06;;;;;;;15.93;14.30;;;;;;;;;;4988567;28;20535;-69
2022/06/22 05:01:36;;;;;;;27.90;14.40;;;;;;;;;;4988970;28;20924;-70
2022/06/22 05:04:05;;;;;;;22.90;14.40;;;;;;;;;;4988387;28;20785;-69
2022/06/22 05:06:35;;;;;;;36.07;15.97;;;;;;;;;;4989654;28;20712;-69
2022/06/22 05:09:03;;;;;;;45.90;18.93;;;;;;;;;;4986672;28;20847;-69
2022/06/22 05:11:38;;;;;;;30.03;16.27;;;;;;;;;;4989279;28;20416;-69
2022/06/22 05:14:09;;;;;;;33.40;15.50;;;;;;;;;;4988671;28;20777;-69
2022/06/22 05:16:36;;;;;;;18.80;15.40;;;;;;;;;;4988287;28;20412;-69
2022/06/22 05:19:02;;;;;;;28.87;17.00;;;;;;;;;;4986331;28;20983;-70
2022/06/22 05:21:39;;;;;;;23.07;16.80;;;;;;;;;;4989127;28;20458;-69
2022/06/22 05:24:07;;;;;;;30.03;15.27;;;;;;;;;;4988290;28;20412;-69
2022/06/22 05:26:35;;;;;;;31.63;17.20;;;;;;;;;;4988987;28;20417;-69
2022/06/22 05:29:01;;;;;;;27.03;15.80;;;;;;;;;;4987479;28;20507;-69
2022/06/22 05:31:31;;;;;;;20.00;14.77;;;;;;;;;;4988695;28;20408;-69
2022/06/22 05:34:00;;;;;;;23.63;16.67;;;;;;;;;;4988175;28;20412;-69
2022/06/22 05:36:26;;;;;;;23.63;16.23;;;;;;;;;;4988741;28;20415;-69
2022/06/22 05:38:55;;;;;;;23.20;17.23;;;;;;;;;;4986845;28;20455;-68
2022/06/22 05:41:28;;;;;;;20.37;17.00;;;;;;;;;;4989018;28;20466;-67
2022/06/22 05:43:57;;;;;;;18.03;15.63;;;;;;;;;;4989405;28;21144;-67
2022/06/22 05:46:23;;;;;;;23.37;15.53;;;;;;;;;;5008126;28;20411;-68
2022/06/22 05:48:50;;;;;;;19.40;16.47;;;;;;;;;;5006323;28;21240;-69
2022/06/22 05:51:36;;;;;;;18.43;16.40;;;;;;;;;;4998878;28;20420;-68
2022/06/22 05:54:18;;;;;;;20.17;15.20;;;;;;;;;;4987678;28;21192;-68
2022/06/22 05:56:45;;;;;;;28.53;16.10;;;;;;;;;;4988075;28;20404;-68
2022/06/22 05:59:18;;;;;;;20.77;16.23;;;;;;;;;;4986527;28;20526;-68
2022/06/22 06:02:02;;;;;;;29.73;15.00;;;;;;;;;;4988112;28;20768;-68
2022/06/22 06:04:28;;;;;;;17.83;16.00;;;;;;;;;;4986523;28;20412;-68
2022/06/22 06:06:59;;;;;;;16.60;14.13;;;;;;;;;;4984010;28;20412;-68
2022/06/22 06:09:26;;;;;;;17.03;15.60;;;;;;;;;;4978525;28;20487;-67
2022/06/22 06:12:02;;;;;;;17.10;13.30;;;;;;;;;;4976086;28;20516;-68
2022/06/22 06:14:34;;;;;;;23.57;14.50;;;;;;;;;;4975894;28;20896;-68
2022/06/22 06:17:03;;;;;;;19.10;12.43;;;;;;;;;;4977150;28;20411;-67
2022/06/22 06:19:31;;;;;;;29.00;13.43;;;;;;;;;;4979050;28;20468;-68
2022/06/22 06:21:59;;;;;;;18.20;15.33;;;;;;;;;;4978355;28;20421;-68
2022/06/22 06:24:28;;;;;;;17.63;15.73;;;;;;;;;;4976868;28;20787;-68
2022/06/22 06:30:03;;;;;;;16.33;14.13;;;;;;;;;;4980105;28;20439;-68
2022/06/22 06:32:32;;;;;;;21.90;12.77;;;;;;;;;;4973449;28;20507;-68
2022/06/22 06:35:04;;;;;;;22.17;15.17;;;;;;;;;;4970593;28;20405;-69
2022/06/22 06:37:30;;;;;;;17.07;15.07;;;;;;;;;;4970489;28;20495;-68
2022/06/22 06:39:57;;;;;;;17.80;16.07;;;;;;;;;;4969888;28;20456;-68
2022/06/22 06:42:43;;;;;;;19.93;15.40;;;;;;;;;;4971255;28;20449;-69
2022/06/22 06:45:14;;;;;;;18.87;15.30;;;;;;;;;;4993411;28;20493;-69
2022/06/22 06:47:41;;;;;;;18.27;16.20;;;;;;;;;;5009209;28;20450;-69
2022/06/22 06:50:08;;;;;;;18.90;17.30;;;;;;;;;;5007964;28;20718;-69
2022/06/22 06:52:40;;;;;;;19.70;17.60;;;;;;;;;;4990022;28;20443;-69
2022/06/22 06:55:20;;;;;;;27.17;17.13;;;;;;;;;;4989757;28;20902;-68
2022/06/22 06:57:59;;;;;;;50.50;19.80;;;;;;;;;;4970947;28;20571;-69
2022/06/22 07:00:26;;;;;;;26.97;18.80;;;;;;;;;;4969777;28;20461;-69
2022/06/22 07:02:52;;;;;;;41.67;17.97;;;;;;;;;;4970626;28;20492;-68
2022/06/22 07:05:20;;;;;;;19.00;16.80;;;;;;;;;;4970116;28;20452;-69
2022/06/22 07:07:58;;;;;;;18.77;16.70;;;;;;;;;;4970849;28;20648;-69
2022/06/22 07:10:36;;;;;;;27.67;17.40;;;;;;;;;;4977726;28;20528;-68
2022/06/22 07:13:23;;;;;;;32.63;17.70;;;;;;;;;;4987244;28;20405;-69
2022/06/22 07:15:51;;;;;;;26.47;16.20;;;;;;;;;;4985118;28;20424;-68
2022/06/22 07:18:21;;;;;;;25.00;16.17;;;;;;;;;;4997719;28;20440;-68
2022/06/22 07:20:49;;;;;;;21.10;15.87;;;;;;;;;;5006322;28;20439;-69
2022/06/22 07:23:25;;;;;;;20.97;14.63;;;;;;;;;;5002540;28;20404;-69
2022/06/22 07:25:57;;;;;;;16.60;14.03;;;;;;;;;;5003819;28;20376;-68
2022/06/22 07:28:26;;;;;;;25.20;16.50;;;;;;;;;;4989538;28;20813;-68
2022/06/22 07:30:56;;;;;;;16.83;13.83;;;;;;;;;;4989184;28;20921;-68
2022/06/22 07:33:30;;;;;;;17.67;13.60;;;;;;;;;;4988702;28;20562;-67
2022/06/22 07:35:59;;;;;;;17.00;13.77;;;;;;;;;;4990697;28;20866;-67
2022/06/22 07:38:25;;;;;;;17.00;13.10;;;;;;;;;;4988742;28;20515;-68
2022/06/22 07:43:36;;;;;;;21.60;13.00;;;;;;;;;;4990026;28;20407;-69
2022/06/22 07:46:03;;;;;;;16.83;11.87;;;;;;;;;;5007849;28;20437;-68
2022/06/22 07:48:31;;;;;;;19.13;12.30;;;;;;;;;;5008497;28;20439;-69
2022/06/22 07:50:59;;;;;;;20.30;12.23;;;;;;;;;;5002453;28;20408;-70
2022/06/22 07:53:28;;;;;;;16.50;12.53;;;;;;;;;;4989952;28;20436;-69
2022/06/22 07:56:15;;;;;;;24.17;14.37;;;;;;;;;;4996649;28;20466;-70
2022/06/22 07:58:59;;;;;;;30.10;16.17;;;;;;;;;;4995190;28;20451;-69
2022/06/22 08:01:29;;;;;;;19.40;13.47;;;;;;;;;;5002461;28;20404;-70
2022/06/22 08:04:05;;;;;;;27.07;15.40;;;;;;;;;;4999320;28;21354;-69
2022/06/22 08:06:38;;;;;;;30.13;15.93;;;;;;;;;;4998591;28;20408;-69
2022/06/22 08:09:11;;;;;;;24.70;16.33;;;;;;;;;;5003963;28;20428;-69
2022/06/22 08:11:39;;;;;;;21.97;15.33;;;;;;;;;;5002317;28;20481;-69
2022/06/22 08:14:08;;;;;;;17.60;15.03;;;;;;;;;;5005798;28;20404;-70
2022/06/22 08:16:37;;;;;;;16.43;14.43;;;;;;;;;;4991995;28;20448;-69
2022/06/22 08:19:04;;;;;;;16.67;14.60;;;;;;;;;;4987933;28;20467;-69
2022/06/22 08:21:30;;;;;;;26.80;16.00;;;;;;;;;;4989592;28;20412;-69
2022/06/22 08:23:57;;;;;;;31.37;14.70;;;;;;;;;;4988865;28;20431;-68
2022/06/22 08:26:26;;;;;;;31.10;15.83;;;;;;;;;;4989401;28;20405;-69
2022/06/22 08:28:53;;;;;;;24.33;14.80;;;;;;;;;;4988006;28;20423;-70
2022/06/22 08:31:19;;;;;;;33.03;15.77;;;;;;;;;;4989698;28;20499;-69
2022/06/22 08:33:50;;;;;;;26.03;13.93;;;;;;;;;;4989271;28;20405;-69
2022/06/22 08:36:19;;;;;;;26.93;15.33;;;;;;;;;;4989234;28;20401;-69
2022/06/22 08:39:08;;;;;;;20.23;15.83;;;;;;;;;;4988161;28;20940;-69
2022/06/22 08:41:57;;;;;;;22.40;16.50;;;;;;;;;;4944224;28;20431;-69
2022/06/22 08:44:31;;;;;;;26.50;16.43;;;;;;;;;;4995690;28;20875;-69
2022/06/22 08:46:57;;;;;;;18.50;14.40;;;;;;;;;;5012444;28;20860;-71
2022/06/22 08:49:41;;;;;;;18.17;16.37;;;;;;;;;;5010854;28;20438;-68
2022/06/22 08:52:11;;;;;;;21.40;15.70;;;;;;;;;;4996005;28;20468;-69
2022/06/22 08:54:37;;;;;;;18.73;16.33;;;;;;;;;;4992023;28;20407;-69
2022/06/22 08:57:06;;;;;;;17.27;15.40;;;;;;;;;;4991927;28;20407;-68
2022/06/22 08:59:32;;;;;;;20.37;16.53;;;;;;;;;;4990667;28;20530;-70
2022/06/22 09:01:58;;;;;;;19.50;16.63;;;;;;;;;;4991964;28;20408;-69
2022/06/22 09:04:47;;;;;;;26.27;17.00;;;;;;;;;;4991725;28;20435;-70
2022/06/22 09:07:18;;;;;;;29.20;18.93;;;;;;;;;;4989176;28;20447;-69
2022/06/22 09:09:53;;;;;;;32.43;19.07;;;;;;;;;;4991914;28;20850;-71
2022/06/22 09:12:25;;;;;;;24.60;17.10;;;;;;;;;;4992304;28;20404;-69
2022/06/22 09:15:10;;;;;;;32.37;20.70;;;;;;;;;;4991656;28;20474;-69
2022/06/22 09:17:46;;;;;;;21.23;18.80;;;;;;;;;;4991549;28;20577;-69
2022/06/22 09:20:33;;;;;;;29.57;18.13;;;;;;;;;;4990751;28;20802;-69
2022/06/22 09:23:02;;;;;;;34.27;19.57;;;;;;;;;;4991332;28;20470;-69
2022/06/22 09:25:31;;;;;;;25.63;18.43;;;;;;;;;;4991585;28;20479;-70
2022/06/22 09:28:11;;;;;;;27.33;17.50;;;;;;;;;;4990796;28;20842;-70
2022/06/22 09:30:56;;;;;;;32.70;18.10;;;;;;;;;;4990714;28;20415;-70
2022/06/22 09:33:28;;;;;;;22.77;17.90;;;;;;;;;;4990894;28;20412;-70
2022/06/22 09:36:10;;;;;;;19.50;17.27;;;;;;;;;;4990921;28;20492;-69
2022/06/22 09:38:36;;;;;;;21.90;19.60;;;;;;;;;;4990059;28;20502;-69
2022/06/22 09:41:20;;;;;;;28.30;21.37;;;;;;;;;;4991104;28;20440;-69
2022/06/22 09:43:50;;;;;;;24.70;21.20;;;;;;;;;;4991798;28;20779;-68
2022/06/22 09:46:38;;;;;;;23.20;20.73;;;;;;;;;;5010860;28;20478;-70
2022/06/22 09:49:23;;;;;;;26.97;22.50;;;;;;;;;;5009582;28;20459;-69
2022/06/22 09:52:08;;;;;;;49.00;30.50;;;;;;;;;;4996844;28;20920;-71
2022/06/22 09:57:39;;;;;;;38.37;27.37;;;;;;;;;;4990366;28;20403;-69
2022/06/22 10:00:05;;;;;;;38.93;32.20;;;;;;;;;;4990211;28;20864;-71
2022/06/22 10:02:34;;;;;;;36.80;33.13;;;;;;;;;;4991143;28;20405;-71
2022/06/22 10:05:26;;;;;;;41.30;28.63;;;;;;;;;;4990513;28;20449;-71
2022/06/22 10:08:11;;;;;;;35.30;21.93;;;;;;;;;;4990110;28;20450;-69
2022/06/22 10:10:55;;;;;;;24.97;21.50;;;;;;;;;;4990609;28;20397;-70
2022/06/22 10:13:22;;;;;;;30.30;22.13;;;;;;;;;;4990262;28;20412;-69
2022/06/22 10:16:07;;;;;;;43.50;23.70;;;;;;;;;;4990462;28;20508;-69
2022/06/22 10:18:38;;;;;;;24.53;19.77;;;;;;;;;;4989327;28;20498;-68
2022/06/22 10:21:20;;;;;;;20.70;18.47;;;;;;;;;;4990433;28;20401;-68
2022/06/22 10:24:04;;;;;;;22.63;18.50;;;;;;;;;;4989478;28;20463;-68
2022/06/22 10:26:30;;;;;;;24.13;17.63;;;;;;;;;;4989433;28;20404;-70
2022/06/22 10:29:15;;;;;;;18.97;17.00;;;;;;;;;;4989013;28;20745;-70
2022/06/22 10:31:50;;;;;;;28.50;18.77;;;;;;;;;;4990088;28;21071;-70
2022/06/22 10:34:22;;;;;;;27.40;17.00;;;;;;;;;;4988746;28;20474;-70
2022/06/22 10:36:57;;;;;;;29.57;17.10;;;;;;;;;;4989538;28;20765;-70
2022/06/22 10:39:27;;;;;;;19.90;17.43;;;;;;;;;;4988373;28;20526;-70
2022/06/22 10:45:09;;;;;;;17.27;15.40;;;;;;;;;;4998442;28;20473;-69
2022/06/22 10:47:35;;;;;;;19.37;14.73;;;;;;;;;;5008679;28;20439;-70
2022/06/22 10:50:12;;;;;;;26.60;15.53;;;;;;;;;;5008231;28;20756;-69
2022/06/22 10:52:38;;;;;;;40.23;18.07;;;;;;;;;;4989434;28;20396;-71
2022/06/22 10:55:11;;;;;;;24.87;15.70;;;;;;;;;;4989043;28;20408;-71
2022/06/22 10:57:46;;;;;;;20.53;16.43;;;;;;;;;;4988521;28;20432;-72
2022/06/22 11:00:20;;;;;;;24.80;16.97;;;;;;;;;;4988297;28;20544;-70
2022/06/22 11:02:50;;;;;;;27.53;17.50;;;;;;;;;;4989395;28;20411;-72
2022/06/22 11:05:33;;;;;;;19.53;15.33;;;;;;;;;;4989066;28;20404;-70
2022/06/22 11:08:03;;;;;;;23.00;15.47;;;;;;;;;;4987855;28;20431;-70
2022/06/22 11:10:48;;;;;;;21.43;14.60;;;;;;;;;;4987522;28;20506;-70
2022/06/22 11:13:20;;;;;;;16.67;13.70;;;;;;;;;;4989357;28;20420;-69
2022/06/22 11:16:05;;;;;;;16.90;11.73;;;;;;;;;;4988785;28;20447;-69
2022/06/22 11:18:36;;;;;;;15.07;11.93;;;;;;;;;;4987849;28;20444;-71
2022/06/22 11:21:21;;;;;;;17.23;11.73;;;;;;;;;;4990026;28;20499;-69
2022/06/22 11:23:47;;;;;;;15.33;11.73;;;;;;;;;;4989287;28;20462;-69
2022/06/22 11:31:57;;;;;;;13.30;10.87;;;;;;;;;;4990645;28;20468;-69
2022/06/22 11:34:51;;;;;;;13.60;11.03;;;;;;;;;;4988897;28;20410;-69
2022/06/22 11:37:20;;;;;;;20.30;10.77;;;;;;;;;;4988891;28;20397;-70
2022/06/22 11:39:49;;;;;;;16.67;11.00;;;;;;;;;;4987981;28;20499;-68
2022/06/22 11:42:39;;;;;;;18.57;13.63;;;;;;;;;;4989516;28;20437;-68
2022/06/22 11:47:59;;;;;;;18.07;10.97;;;;;;;;;;5007748;28;20434;-68
2022/06/22 11:50:35;;;;;;;15.50;9.73;;;;;;;;;;5006139;28;20521;-69
2022/06/22 11:53:33;;;;;;;13.27;9.53;;;;;;;;;;4988395;28;20435;-69
2022/06/22 11:56:02;;;;;;;11.13;9.93;;;;;;;;;;4933541;28;20866;-67
2022/06/22 11:58:31;;;;;;;33.70;13.47;;;;;;;;;;4981169;28;20501;-68
2022/06/22 12:01:12;;;;;;;26.03;11.13;;;;;;;;;;4979039;28;20431;-68
2022/06/22 12:03:45;;;;;;;13.27;11.87;;;;;;;;;;4977736;28;20401;-68
2022/06/22 12:06:28;;;;;;;13.97;10.00;;;;;;;;;;4977222;28;20445;-67
2022/06/22 12:08:54;;;;;;;16.03;9.00;;;;;;;;;;4977440;28;21007;-68
2022/06/22 12:11:26;;;;;;;11.53;8.70;;;;;;;;;;4978101;28;20476;-67
2022/06/22 12:17:11;;;;;;;17.30;7.90;;;;;;;;;;4976339;28;20385;-68
2022/06/22 12:19:40;;;;;;;16.17;9.00;;;;;;;;;;4985177;28;20460;-67
2022/06/22 12:22:24;;;;;;;10.93;9.63;;;;;;;;;;4985058;28;20702;-66
2022/06/22 12:25:20;;;;;;;12.73;9.40;;;;;;;;;;4983006;28;20454;-67
2022/06/22 12:27:56;;;;;;;16.10;10.07;;;;;;;;;;4962912;28;20543;-67
2022/06/22 12:30:49;;;;;;;16.67;9.90;;;;;;;;;;4981689;28;20808;-68
2022/06/22 12:33:23;;;;;;;12.60;10.37;;;;;;;;;;4950822;28;20518;-67
2022/06/22 12:35:57;;;;;;;14.17;10.60;;;;;;;;;;4984231;28;20421;-66
2022/06/22 12:38:35;;;;;;;19.03;10.73;;;;;;;;;;4984371;28;20968;-68
2022/06/22 12:41:19;;;;;;;16.10;10.30;;;;;;;;;;4988189;28;20416;-67
2022/06/22 12:44:04;;;;;;;16.00;12.30;;;;;;;;;;4984692;28;20417;-69
2022/06/22 12:46:45;;;;;;;14.80;11.17;;;;;;;;;;4989297;28;20432;-68
2022/06/22 12:49:29;;;;;;;19.27;9.83;;;;;;;;;;4989338;28;20530;-67
2022/06/22 12:51:58;;;;;;;13.10;10.90;;;;;;;;;;4983500;28;20531;-69
2022/06/22 12:54:32;;;;;;;12.37;10.47;;;;;;;;;;4985776;28;20483;-67
2022/06/22 12:57:04;;;;;;;15.27;10.93;;;;;;;;;;4985714;28;20435;-67
2022/06/22 12:59:40;;;;;;;12.77;11.73;;;;;;;;;;4979571;28;20539;-68
2022/06/22 13:02:14;;;;;;;13.13;11.23;;;;;;;;;;4977584;28;20487;-66
2022/06/22 13:04:42;;;;;;;14.97;9.50;;;;;;;;;;4982757;28;20394;-68
2022/06/22 13:07:11;;;;;;;13.53;9.07;;;;;;;;;;4980284;28;20416;-68
2022/06/22 13:09:37;;;;;;;17.67;9.00;;;;;;;;;;4980504;28;20432;-68
2022/06/22 13:12:12;;;;;;;22.03;8.43;;;;;;;;;;4978913;28;20416;-69
2022/06/22 13:14:45;;;;;;;9.00;7.87;;;;;;;;;;4981928;28;20454;-69
2022/06/22 13:17:21;;;;;;;10.47;8.23;;;;;;;;;;4982354;28;20918;-67
2022/06/22 13:19:55;;;;;;;12.40;7.50;;;;;;;;;;4979304;28;20455;-67
2022/06/22 13:22:36;;;;;;;11.10;6.30;;;;;;;;;;4981721;28;20518;-68
2022/06/22 13:25:09;;;;;;;44.37;11.33;;;;;;;;;;4980443;28;20411;-67
2022/06/22 13:27:45;;;;;;;10.77;7.27;;;;;;;;;;4978933;28;20420;-68
2022/06/22 13:30:17;;;;;;;11.03;7.37;;;;;;;;;;4980768;28;20408;-67
2022/06/22 13:32:45;;;;;;;30.03;8.50;;;;;;;;;;4979122;28;20409;-68
2022/06/22 13:35:18;;;;;;;10.50;5.90;;;;;;;;;;4980977;28;20440;-67
2022/06/22 13:37:52;;;;;;;9.43;6.80;;;;;;;;;;4975789;28;20500;-68
2022/06/22 13:40:27;;;;;;;11.83;6.90;;;;;;;;;;4979270;28;20752;-69
2022/06/22 13:43:12;;;;;;;10.83;7.80;;;;;;;;;;4976102;28;20397;-68
2022/06/22 13:45:38;;;;;;;8.33;6.67;;;;;;;;;;4984631;28;20396;-69
2022/06/22 13:48:07;;;;;;;9.87;6.80;;;;;;;;;;4978633;28;20441;-68
2022/06/22 13:51:18;;;;;;;18.47;8.07;;;;;;;;;;4982523;28;20491;-67
2022/06/22 13:53:54;;;;;;;10.07;6.87;;;;;;;;;;4981849;28;20499;-68
2022/06/22 13:56:39;;;;;;;8.60;7.27;;;;;;;;;;4979329;28;20386;-69
2022/06/22 13:59:14;;;;;;;13.30;6.60;;;;;;;;;;4977383;28;20523;-69
2022/06/22 14:01:43;;;;;;;12.17;7.70;;;;;;;;;;4977157;28;20952;-68
2022/06/22 14:04:19;;;;;;;9.53;7.23;;;;;;;;;;4981516;28;20809;-67
2022/06/22 14:06:59;;;;;;;13.20;6.70;;;;;;;;;;4981062;28;20867;-68
2022/06/22 14:09:32;;;;;;;11.20;6.70;;;;;;;;;;4976259;28;20425;-68
2022/06/22 14:12:02;;;;;;;12.20;7.47;;;;;;;;;;4978569;28;20527;-67
2022/06/22 14:14:54;;;;;;;11.53;7.87;;;;;;;;;;4980585;28;20549;-67
2022/06/22 14:17:47;;;;;;;11.63;7.30;;;;;;;;;;4979875;28;20425;-67
2022/06/22 14:20:20;;;;;;;17.50;6.90;;;;;;;;;;4962785;28;20467;-67
2022/06/22 14:22:49;;;;;;;8.90;7.43;;;;;;;;;;4980568;28;20423;-68
2022/06/22 14:25:36;;;;;;;11.70;9.43;;;;;;;;;;4997839;28;20408;-67
2022/06/22 14:28:11;;;;;;;14.97;9.50;;;;;;;;;;4976755;28;20429;-68
2022/06/22 14:30:48;;;;;;;10.83;9.73;;;;;;;;;;4979988;28;20702;-68
2022/06/22 14:33:33;;;;;;;11.20;8.40;;;;;;;;;;4981950;28;20401;-67
2022/06/22 14:36:18;;;;;;;10.17;9.10;;;;;;;;;;4984477;28;20407;-68
2022/06/22 14:38:59;;;;;;;9.03;6.90;;;;;;;;;;4986961;28;20420;-67
2022/06/22 14:41:29;;;;;;;11.33;5.73;;;;;;;;;;4984111;28;20821;-67
2022/06/22 14:44:01;;;;;;;10.50;6.00;;;;;;;;;;4977383;28;20710;-67
2022/06/22 14:46:39;;;;;;;16.70;8.63;;;;;;;;;;5032556;23;20494;-69
2022/06/22 14:49:15;;;;;;;12.47;5.57;;;;;;;;;;5036896;28;20760;-69
2022/06/22 14:51:50;;;;;;;17.93;5.93;;;;;;;;;;5033829;28;20398;-69
2022/06/22 14:54:29;;;;;;;16.50;6.40;;;;;;;;;;5033755;28;20588;-69
2022/06/22 14:56:58;;;;;;;9.60;4.53;;;;;;;;;;5029300;28;20411;-69
2022/06/22 14:59:30;;;;;;;6.47;3.90;;;;;;;;;;5022391;28;20463;-70
2022/06/22 15:01:59;;;;;;;12.43;4.40;;;;;;;;;;5013363;28;20414;-70
2022/06/22 15:04:28;;;;;;;12.67;5.40;;;;;;;;;;5025820;28;20897;-70
2022/06/22 15:07:07;;;;;;;8.97;4.00;;;;;;;;;;5028274;28;20418;-71
2022/06/22 15:09:53;;;;;;;12.90;4.60;;;;;;;;;;5010418;28;20785;-69
2022/06/22 15:12:57;;;;;;;9.07;4.73;;;;;;;;;;5020679;28;20413;-68
2022/06/22 15:15:27;;;;;;;16.43;5.70;;;;;;;;;;5028090;28;20410;-69
2022/06/22 15:17:56;;;;;;;12.50;6.63;;;;;;;;;;5021285;28;20415;-69
2022/06/22 15:20:41;;;;;;;6.70;4.40;;;;;;;;;;5007908;28;20471;-69
2022/06/22 15:23:20;;;;;;;14.27;5.50;;;;;;;;;;5007627;28;20426;-67
2022/06/22 15:26:05;;;;;;;11.93;4.20;;;;;;;;;;5002996;28;20458;-68
2022/06/22 15:28:31;;;;;;;7.63;4.77;;;;;;;;;;4998635;28;20413;-68
2022/06/22 15:31:15;;;;;;;8.77;4.20;;;;;;;;;;4997632;28;20416;-69